sensor_id;sensor_type;location;lat;lon;timestamp;P1;durP1;ratioP1;P2;durP2;ratioP2
29538;SDS011;16482;51.046;4.498;2022-08-21T00:01:37;4.53;;;2.92;;
29538;SDS011;16482;51.046;4.498;2022-08-21T00:04:04;5.93;;;2.65;;
29538;SDS011;16482;51.046;4.498;2022-08-21T00:06:31;5.80;;;2.58;;
29538;SDS011;16482;51.046;4.498;2022-08-21T00:08:59;3.67;;;2.80;;
29538;SDS011;16482;51.046;4.498;2022-08-21T00:11:25;5.40;;;2.53;;
29538;SDS011;16482;51.046;4.498;2022-08-21T00:13:52;4.80;;;2.58;;
29538;SDS011;16482;51.046;4.498;2022-08-21T00:16:18;5.20;;;2.55;;
29538;SDS011;16482;51.046;4.498;2022-08-21T00:18:44;3.83;;;2.70;;
29538;SDS011;16482;51.046;4.498;2022-08-21T00:21:11;5.80;;;2.85;;
29538;SDS011;16482;51.046;4.498;2022-08-21T00:23:38;4.85;;;2.72;;
29538;SDS011;16482;51.046;4.498;2022-08-21T00:26:04;4.47;;;2.70;;
29538;SDS011;16482;51.046;4.498;2022-08-21T00:28:31;4.57;;;2.78;;
29538;SDS011;16482;51.046;4.498;2022-08-21T00:31:00;5.07;;;2.60;;
29538;SDS011;16482;51.046;4.498;2022-08-21T00:33:29;4.55;;;3.00;;
29538;SDS011;16482;51.046;4.498;2022-08-21T00:35:55;5.43;;;2.50;;
29538;SDS011;16482;51.046;4.498;2022-08-21T00:38:22;3.47;;;2.38;;
29538;SDS011;16482;51.046;4.498;2022-08-21T00:40:55;3.97;;;2.30;;
29538;SDS011;16482;51.046;4.498;2022-08-21T00:43:25;4.53;;;2.50;;
29538;SDS011;16482;51.046;4.498;2022-08-21T00:45:54;4.22;;;2.47;;
29538;SDS011;16482;51.046;4.498;2022-08-21T00:48:21;5.13;;;2.67;;
29538;SDS011;16482;51.046;4.498;2022-08-21T00:51:33;4.88;;;2.75;;
29538;SDS011;16482;51.046;4.498;2022-08-21T00:53:49;4.00;;;2.67;;
29538;SDS011;16482;51.046;4.498;2022-08-21T00:56:19;5.50;;;2.78;;
29538;SDS011;16482;51.046;4.498;2022-08-21T00:58:47;4.13;;;2.50;;
29538;SDS011;16482;51.046;4.498;2022-08-21T01:01:15;4.95;;;2.40;;
29538;SDS011;16482;51.046;4.498;2022-08-21T01:03:41;4.15;;;2.72;;
29538;SDS011;16482;51.046;4.498;2022-08-21T01:06:09;3.67;;;2.33;;
29538;SDS011;16482;51.046;4.498;2022-08-21T01:08:38;3.72;;;2.35;;
29538;SDS011;16482;51.046;4.498;2022-08-21T01:11:13;4.10;;;2.47;;
29538;SDS011;16482;51.046;4.498;2022-08-21T01:13:40;3.38;;;2.42;;
29538;SDS011;16482;51.046;4.498;2022-08-21T01:16:11;5.70;;;2.67;;
29538;SDS011;16482;51.046;4.498;2022-08-21T01:18:42;4.38;;;2.67;;
29538;SDS011;16482;51.046;4.498;2022-08-21T01:21:13;4.25;;;2.45;;
29538;SDS011;16482;51.046;4.498;2022-08-21T01:26:13;4.13;;;2.42;;
29538;SDS011;16482;51.046;4.498;2022-08-21T01:28:46;5.15;;;2.47;;
29538;SDS011;16482;51.046;4.498;2022-08-21T01:31:26;4.32;;;2.47;;
29538;SDS011;16482;51.046;4.498;2022-08-21T01:33:53;3.67;;;2.47;;
29538;SDS011;16482;51.046;4.498;2022-08-21T01:36:22;4.03;;;2.30;;
29538;SDS011;16482;51.046;4.498;2022-08-21T01:38:48;4.55;;;2.75;;
29538;SDS011;16482;51.046;4.498;2022-08-21T01:41:15;3.28;;;2.22;;
29538;SDS011;16482;51.046;4.498;2022-08-21T01:43:41;3.83;;;2.38;;
29538;SDS011;16482;51.046;4.498;2022-08-21T01:46:09;4.07;;;2.25;;
29538;SDS011;16482;51.046;4.498;2022-08-21T01:48:39;3.78;;;2.20;;
29538;SDS011;16482;51.046;4.498;2022-08-21T01:51:09;3.28;;;2.10;;
29538;SDS011;16482;51.046;4.498;2022-08-21T01:53:39;3.78;;;2.30;;
29538;SDS011;16482;51.046;4.498;2022-08-21T01:56:15;4.03;;;2.50;;
29538;SDS011;16482;51.046;4.498;2022-08-21T01:58:43;6.00;;;2.50;;
29538;SDS011;16482;51.046;4.498;2022-08-21T02:01:10;5.05;;;2.42;;
29538;SDS011;16482;51.046;4.498;2022-08-21T02:03:39;3.78;;;2.45;;
29538;SDS011;16482;51.046;4.498;2022-08-21T02:06:06;5.43;;;2.25;;
29538;SDS011;16482;51.046;4.498;2022-08-21T02:08:39;3.92;;;2.47;;
29538;SDS011;16482;51.046;4.498;2022-08-21T02:11:08;2.67;;;1.90;;
29538;SDS011;16482;51.046;4.498;2022-08-21T02:13:41;5.25;;;2.20;;
29538;SDS011;16482;51.046;4.498;2022-08-21T02:16:07;3.53;;;2.22;;
29538;SDS011;16482;51.046;4.498;2022-08-21T02:18:41;3.65;;;2.40;;
29538;SDS011;16482;51.046;4.498;2022-08-21T02:21:10;3.42;;;2.20;;
29538;SDS011;16482;51.046;4.498;2022-08-21T02:23:43;4.55;;;2.42;;
29538;SDS011;16482;51.046;4.498;2022-08-21T02:26:10;3.60;;;2.20;;
29538;SDS011;16482;51.046;4.498;2022-08-21T02:28:39;3.80;;;2.40;;
29538;SDS011;16482;51.046;4.498;2022-08-21T02:31:10;4.30;;;2.28;;
29538;SDS011;16482;51.046;4.498;2022-08-21T02:33:38;4.22;;;2.13;;
29538;SDS011;16482;51.046;4.498;2022-08-21T02:36:04;4.05;;;2.53;;
29538;SDS011;16482;51.046;4.498;2022-08-21T02:38:32;5.32;;;2.15;;
29538;SDS011;16482;51.046;4.498;2022-08-21T02:41:09;2.80;;;1.88;;
29538;SDS011;16482;51.046;4.498;2022-08-21T02:43:40;4.18;;;2.25;;
29538;SDS011;16482;51.046;4.498;2022-08-21T02:46:14;3.75;;;2.30;;
29538;SDS011;16482;51.046;4.498;2022-08-21T02:48:42;3.08;;;1.90;;
29538;SDS011;16482;51.046;4.498;2022-08-21T02:51:10;3.95;;;2.03;;
29538;SDS011;16482;51.046;4.498;2022-08-21T02:53:41;3.40;;;2.00;;
29538;SDS011;16482;51.046;4.498;2022-08-21T02:56:08;4.63;;;2.22;;
29538;SDS011;16482;51.046;4.498;2022-08-21T02:58:36;5.63;;;2.20;;
29538;SDS011;16482;51.046;4.498;2022-08-21T03:01:05;3.08;;;2.08;;
29538;SDS011;16482;51.046;4.498;2022-08-21T03:03:37;5.55;;;2.20;;
29538;SDS011;16482;51.046;4.498;2022-08-21T03:06:04;3.60;;;2.25;;
29538;SDS011;16482;51.046;4.498;2022-08-21T03:08:31;4.25;;;2.33;;
29538;SDS011;16482;51.046;4.498;2022-08-21T03:10:57;3.35;;;2.08;;
29538;SDS011;16482;51.046;4.498;2022-08-21T03:13:24;4.40;;;2.35;;
29538;SDS011;16482;51.046;4.498;2022-08-21T03:15:50;3.80;;;2.08;;
29538;SDS011;16482;51.046;4.498;2022-08-21T03:18:17;3.78;;;2.15;;
29538;SDS011;16482;51.046;4.498;2022-08-21T03:20:43;3.83;;;2.00;;
29538;SDS011;16482;51.046;4.498;2022-08-21T03:23:13;3.70;;;2.40;;
29538;SDS011;16482;51.046;4.498;2022-08-21T03:25:40;4.50;;;2.10;;
29538;SDS011;16482;51.046;4.498;2022-08-21T03:28:08;4.22;;;2.17;;
29538;SDS011;16482;51.046;4.498;2022-08-21T03:30:42;3.92;;;2.00;;
29538;SDS011;16482;51.046;4.498;2022-08-21T03:33:09;3.22;;;2.00;;
29538;SDS011;16482;51.046;4.498;2022-08-21T03:35:35;3.95;;;2.15;;
29538;SDS011;16482;51.046;4.498;2022-08-21T03:38:01;4.47;;;1.98;;
29538;SDS011;16482;51.046;4.498;2022-08-21T03:40:28;4.93;;;2.22;;
29538;SDS011;16482;51.046;4.498;2022-08-21T03:42:54;3.83;;;2.15;;
29538;SDS011;16482;51.046;4.498;2022-08-21T03:45:20;3.85;;;2.10;;
29538;SDS011;16482;51.046;4.498;2022-08-21T03:50:40;4.18;;;1.98;;
29538;SDS011;16482;51.046;4.498;2022-08-21T03:53:09;3.83;;;2.20;;
29538;SDS011;16482;51.046;4.498;2022-08-21T03:55:36;3.45;;;1.98;;
29538;SDS011;16482;51.046;4.498;2022-08-21T03:58:02;4.85;;;2.05;;
29538;SDS011;16482;51.046;4.498;2022-08-21T04:00:29;4.28;;;1.98;;
29538;SDS011;16482;51.046;4.498;2022-08-21T04:02:55;3.35;;;2.20;;
29538;SDS011;16482;51.046;4.498;2022-08-21T04:05:25;4.57;;;2.15;;
29538;SDS011;16482;51.046;4.498;2022-08-21T04:08:01;4.28;;;2.20;;
29538;SDS011;16482;51.046;4.498;2022-08-21T04:10:30;2.83;;;1.90;;
29538;SDS011;16482;51.046;4.498;2022-08-21T04:12:59;5.18;;;2.10;;
29538;SDS011;16482;51.046;4.498;2022-08-21T04:15:27;3.13;;;1.80;;
29538;SDS011;16482;51.046;4.498;2022-08-21T04:17:53;3.78;;;2.00;;
29538;SDS011;16482;51.046;4.498;2022-08-21T04:20:20;4.07;;;1.90;;
29538;SDS011;16482;51.046;4.498;2022-08-21T04:22:47;4.57;;;2.30;;
29538;SDS011;16482;51.046;4.498;2022-08-21T04:25:22;3.33;;;2.15;;
29538;SDS011;16482;51.046;4.498;2022-08-21T04:27:51;2.70;;;1.90;;
29538;SDS011;16482;51.046;4.498;2022-08-21T04:30:20;4.28;;;2.17;;
29538;SDS011;16482;51.046;4.498;2022-08-21T04:32:49;4.10;;;2.10;;
29538;SDS011;16482;51.046;4.498;2022-08-21T04:35:25;4.18;;;2.08;;
29538;SDS011;16482;51.046;4.498;2022-08-21T04:37:52;5.63;;;2.05;;
29538;SDS011;16482;51.046;4.498;2022-08-21T04:40:22;5.57;;;2.58;;
29538;SDS011;16482;51.046;4.498;2022-08-21T04:42:51;5.03;;;2.10;;
29538;SDS011;16482;51.046;4.498;2022-08-21T04:45:24;3.97;;;1.95;;
29538;SDS011;16482;51.046;4.498;2022-08-21T04:47:53;6.80;;;2.25;;
29538;SDS011;16482;51.046;4.498;2022-08-21T04:50:34;3.88;;;2.00;;
29538;SDS011;16482;51.046;4.498;2022-08-21T04:53:08;3.65;;;2.22;;
29538;SDS011;16482;51.046;4.498;2022-08-21T04:55:39;3.40;;;1.98;;
29538;SDS011;16482;51.046;4.498;2022-08-21T04:58:07;4.15;;;2.33;;
29538;SDS011;16482;51.046;4.498;2022-08-21T05:00:36;5.45;;;2.70;;
29538;SDS011;16482;51.046;4.498;2022-08-21T05:03:02;3.92;;;1.83;;
29538;SDS011;16482;51.046;4.498;2022-08-21T05:05:30;4.78;;;2.10;;
29538;SDS011;16482;51.046;4.498;2022-08-21T05:07:57;4.38;;;2.20;;
29538;SDS011;16482;51.046;4.498;2022-08-21T05:10:26;4.57;;;2.13;;
29538;SDS011;16482;51.046;4.498;2022-08-21T05:12:52;6.20;;;2.42;;
29538;SDS011;16482;51.046;4.498;2022-08-21T05:15:19;3.00;;;1.80;;
29538;SDS011;16482;51.046;4.498;2022-08-21T05:17:45;2.75;;;1.90;;
29538;SDS011;16482;51.046;4.498;2022-08-21T05:20:11;6.57;;;2.03;;
29538;SDS011;16482;51.046;4.498;2022-08-21T05:22:54;4.65;;;1.95;;
29538;SDS011;16482;51.046;4.498;2022-08-21T05:25:20;3.10;;;1.70;;
29538;SDS011;16482;51.046;4.498;2022-08-21T05:27:48;4.78;;;2.15;;
29538;SDS011;16482;51.046;4.498;2022-08-21T05:30:19;4.35;;;2.10;;
29538;SDS011;16482;51.046;4.498;2022-08-21T05:32:48;4.15;;;2.10;;
29538;SDS011;16482;51.046;4.498;2022-08-21T05:35:22;4.57;;;2.15;;
29538;SDS011;16482;51.046;4.498;2022-08-21T05:37:50;4.25;;;2.22;;
29538;SDS011;16482;51.046;4.498;2022-08-21T05:40:19;3.17;;;1.80;;
29538;SDS011;16482;51.046;4.498;2022-08-21T05:42:53;5.45;;;2.10;;
29538;SDS011;16482;51.046;4.498;2022-08-21T05:45:25;3.22;;;1.95;;
29538;SDS011;16482;51.046;4.498;2022-08-21T05:47:53;3.58;;;1.80;;
29538;SDS011;16482;51.046;4.498;2022-08-21T05:50:20;5.10;;;2.28;;
29538;SDS011;16482;51.046;4.498;2022-08-21T05:52:46;2.90;;;1.70;;
29538;SDS011;16482;51.046;4.498;2022-08-21T05:55:12;5.65;;;2.08;;
29538;SDS011;16482;51.046;4.498;2022-08-21T05:57:40;5.00;;;2.00;;
29538;SDS011;16482;51.046;4.498;2022-08-21T06:00:07;3.08;;;1.90;;
29538;SDS011;16482;51.046;4.498;2022-08-21T06:02:38;3.42;;;2.15;;
29538;SDS011;16482;51.046;4.498;2022-08-21T06:05:04;5.03;;;2.10;;
29538;SDS011;16482;51.046;4.498;2022-08-21T06:07:30;4.05;;;1.77;;
29538;SDS011;16482;51.046;4.498;2022-08-21T06:09:57;3.17;;;1.90;;
29538;SDS011;16482;51.046;4.498;2022-08-21T06:12:22;3.22;;;1.88;;
29538;SDS011;16482;51.046;4.498;2022-08-21T06:14:51;3.92;;;2.25;;
29538;SDS011;16482;51.046;4.498;2022-08-21T06:17:17;4.05;;;2.42;;
29538;SDS011;16482;51.046;4.498;2022-08-21T06:19:44;3.83;;;2.15;;
29538;SDS011;16482;51.046;4.498;2022-08-21T06:22:10;2.97;;;2.00;;
29538;SDS011;16482;51.046;4.498;2022-08-21T06:24:36;4.70;;;2.05;;
29538;SDS011;16482;51.046;4.498;2022-08-21T06:27:05;5.13;;;2.22;;
29538;SDS011;16482;51.046;4.498;2022-08-21T06:29:32;4.38;;;2.17;;
29538;SDS011;16482;51.046;4.498;2022-08-21T06:31:59;6.38;;;2.40;;
29538;SDS011;16482;51.046;4.498;2022-08-21T06:34:28;3.42;;;1.80;;
29538;SDS011;16482;51.046;4.498;2022-08-21T06:37:02;4.00;;;1.88;;
29538;SDS011;16482;51.046;4.498;2022-08-21T06:39:28;5.32;;;2.00;;
29538;SDS011;16482;51.046;4.498;2022-08-21T06:42:03;5.55;;;2.00;;
29538;SDS011;16482;51.046;4.498;2022-08-21T06:44:29;5.88;;;2.13;;
29538;SDS011;16482;51.046;4.498;2022-08-21T06:47:04;7.03;;;2.28;;
29538;SDS011;16482;51.046;4.498;2022-08-21T06:49:30;6.07;;;2.25;;
29538;SDS011;16482;51.046;4.498;2022-08-21T06:51:55;6.90;;;2.10;;
29538;SDS011;16482;51.046;4.498;2022-08-21T06:54:21;4.82;;;2.40;;
29538;SDS011;16482;51.046;4.498;2022-08-21T06:56:47;5.03;;;2.20;;
29538;SDS011;16482;51.046;4.498;2022-08-21T06:59:13;5.50;;;2.22;;
29538;SDS011;16482;51.046;4.498;2022-08-21T07:01:39;10.57;;;2.45;;
29538;SDS011;16482;51.046;4.498;2022-08-21T07:04:05;5.90;;;2.30;;
29538;SDS011;16482;51.046;4.498;2022-08-21T07:06:31;5.72;;;2.53;;
29538;SDS011;16482;51.046;4.498;2022-08-21T07:08:57;5.53;;;2.30;;
29538;SDS011;16482;51.046;4.498;2022-08-21T07:11:23;5.13;;;2.08;;
29538;SDS011;16482;51.046;4.498;2022-08-21T07:13:50;7.05;;;2.47;;
29538;SDS011;16482;51.046;4.498;2022-08-21T07:16:18;7.35;;;2.40;;
29538;SDS011;16482;51.046;4.498;2022-08-21T07:18:45;5.88;;;2.00;;
29538;SDS011;16482;51.046;4.498;2022-08-21T07:21:11;9.93;;;3.03;;
29538;SDS011;16482;51.046;4.498;2022-08-21T07:23:39;5.93;;;2.55;;
29538;SDS011;16482;51.046;4.498;2022-08-21T07:26:07;6.68;;;2.30;;
29538;SDS011;16482;51.046;4.498;2022-08-21T07:28:34;6.22;;;2.58;;
29538;SDS011;16482;51.046;4.498;2022-08-21T07:31:00;6.82;;;2.58;;
29538;SDS011;16482;51.046;4.498;2022-08-21T07:33:29;5.63;;;1.77;;
29538;SDS011;16482;51.046;4.498;2022-08-21T07:35:56;6.05;;;2.45;;
29538;SDS011;16482;51.046;4.498;2022-08-21T07:38:22;8.70;;;2.80;;
29538;SDS011;16482;51.046;4.498;2022-08-21T07:40:49;7.97;;;2.60;;
29538;SDS011;16482;51.046;4.498;2022-08-21T07:43:16;6.63;;;2.45;;
29538;SDS011;16482;51.046;4.498;2022-08-21T07:45:43;6.93;;;2.60;;
29538;SDS011;16482;51.046;4.498;2022-08-21T07:48:09;6.25;;;2.45;;
29538;SDS011;16482;51.046;4.498;2022-08-21T07:50:35;9.43;;;2.50;;
29538;SDS011;16482;51.046;4.498;2022-08-21T07:53:01;6.00;;;2.58;;
29538;SDS011;16482;51.046;4.498;2022-08-21T07:55:28;9.52;;;2.72;;
29538;SDS011;16482;51.046;4.498;2022-08-21T07:57:53;8.77;;;2.40;;
29538;SDS011;16482;51.046;4.498;2022-08-21T08:00:21;10.55;;;2.85;;
29538;SDS011;16482;51.046;4.498;2022-08-21T08:02:49;7.60;;;2.30;;
29538;SDS011;16482;51.046;4.498;2022-08-21T08:05:17;8.65;;;2.85;;
29538;SDS011;16482;51.046;4.498;2022-08-21T08:07:45;6.82;;;2.40;;
29538;SDS011;16482;51.046;4.498;2022-08-21T08:10:11;8.38;;;2.38;;
29538;SDS011;16482;51.046;4.498;2022-08-21T08:12:38;5.35;;;2.47;;
29538;SDS011;16482;51.046;4.498;2022-08-21T08:15:06;5.95;;;2.38;;
29538;SDS011;16482;51.046;4.498;2022-08-21T08:17:36;9.52;;;2.50;;
29538;SDS011;16482;51.046;4.498;2022-08-21T08:20:05;9.63;;;2.45;;
29538;SDS011;16482;51.046;4.498;2022-08-21T08:22:33;7.95;;;2.63;;
29538;SDS011;16482;51.046;4.498;2022-08-21T08:25:00;7.97;;;2.40;;
29538;SDS011;16482;51.046;4.498;2022-08-21T08:27:27;9.55;;;3.00;;
29538;SDS011;16482;51.046;4.498;2022-08-21T08:29:53;10.73;;;2.80;;
29538;SDS011;16482;51.046;4.498;2022-08-21T08:32:21;6.97;;;2.55;;
29538;SDS011;16482;51.046;4.498;2022-08-21T08:34:48;10.07;;;2.85;;
29538;SDS011;16482;51.046;4.498;2022-08-21T08:37:16;9.82;;;2.90;;
29538;SDS011;16482;51.046;4.498;2022-08-21T08:39:43;8.73;;;2.80;;
29538;SDS011;16482;51.046;4.498;2022-08-21T08:42:20;8.68;;;2.88;;
29538;SDS011;16482;51.046;4.498;2022-08-21T08:44:59;7.43;;;2.85;;
29538;SDS011;16482;51.046;4.498;2022-08-21T08:47:25;7.93;;;2.58;;
29538;SDS011;16482;51.046;4.498;2022-08-21T08:49:58;7.00;;;2.45;;
29538;SDS011;16482;51.046;4.498;2022-08-21T08:52:32;7.05;;;2.60;;
29538;SDS011;16482;51.046;4.498;2022-08-21T08:55:07;8.80;;;2.47;;
29538;SDS011;16482;51.046;4.498;2022-08-21T08:57:37;6.18;;;2.60;;
29538;SDS011;16482;51.046;4.498;2022-08-21T09:00:08;7.75;;;2.72;;
29538;SDS011;16482;51.046;4.498;2022-08-21T09:02:40;7.50;;;2.65;;
29538;SDS011;16482;51.046;4.498;2022-08-21T09:05:08;8.40;;;2.60;;
29538;SDS011;16482;51.046;4.498;2022-08-21T09:08:06;8.77;;;2.70;;
29538;SDS011;16482;51.046;4.498;2022-08-21T09:10:59;6.38;;;2.30;;
29538;SDS011;16482;51.046;4.498;2022-08-21T09:16:45;5.38;;;2.22;;
29538;SDS011;16482;51.046;4.498;2022-08-21T09:22:41;8.30;;;2.50;;
29538;SDS011;16482;51.046;4.498;2022-08-21T09:25:21;7.28;;;2.33;;
29538;SDS011;16482;51.046;4.498;2022-08-21T09:27:53;5.78;;;2.40;;
29538;SDS011;16482;51.046;4.498;2022-08-21T09:30:24;9.60;;;2.65;;
29538;SDS011;16482;51.046;4.498;2022-08-21T09:32:52;6.25;;;2.42;;
29538;SDS011;16482;51.046;4.498;2022-08-21T09:35:20;6.22;;;2.67;;
29538;SDS011;16482;51.046;4.498;2022-08-21T09:37:49;5.05;;;2.22;;
29538;SDS011;16482;51.046;4.498;2022-08-21T09:43:16;6.68;;;2.67;;
29538;SDS011;16482;51.046;4.498;2022-08-21T09:45:44;6.97;;;2.88;;
29538;SDS011;16482;51.046;4.498;2022-08-21T09:48:18;7.93;;;3.15;;
29538;SDS011;16482;51.046;4.498;2022-08-21T09:50:48;7.72;;;2.83;;
29538;SDS011;16482;51.046;4.498;2022-08-21T09:53:27;5.80;;;3.00;;
29538;SDS011;16482;51.046;4.498;2022-08-21T09:56:03;6.40;;;2.70;;
29538;SDS011;16482;51.046;4.498;2022-08-21T09:58:49;8.98;;;2.83;;
29538;SDS011;16482;51.046;4.498;2022-08-21T10:01:19;9.35;;;2.80;;
29538;SDS011;16482;51.046;4.498;2022-08-21T10:03:47;7.03;;;3.20;;
29538;SDS011;16482;51.046;4.498;2022-08-21T10:06:22;10.57;;;2.60;;
29538;SDS011;16482;51.046;4.498;2022-08-21T10:09:03;6.18;;;3.03;;
29538;SDS011;16482;51.046;4.498;2022-08-21T10:11:40;6.78;;;2.92;;
29538;SDS011;16482;51.046;4.498;2022-08-21T10:17:17;6.85;;;2.28;;
29538;SDS011;16482;51.046;4.498;2022-08-21T10:20:17;8.90;;;3.05;;
29538;SDS011;16482;51.046;4.498;2022-08-21T10:23:15;8.35;;;3.05;;
29538;SDS011;16482;51.046;4.498;2022-08-21T10:26:14;10.70;;;3.15;;
29538;SDS011;16482;51.046;4.498;2022-08-21T10:31:37;7.82;;;3.17;;
29538;SDS011;16482;51.046;4.498;2022-08-21T10:36:42;10.32;;;3.25;;
29538;SDS011;16482;51.046;4.498;2022-08-21T10:45:03;7.55;;;2.90;;
29538;SDS011;16482;51.046;4.498;2022-08-21T10:47:41;7.47;;;3.33;;
29538;SDS011;16482;51.046;4.498;2022-08-21T10:52:53;12.40;;;3.65;;
29538;SDS011;16482;51.046;4.498;2022-08-21T10:55:52;7.43;;;3.00;;
29538;SDS011;16482;51.046;4.498;2022-08-21T10:58:31;8.38;;;2.90;;
29538;SDS011;16482;51.046;4.498;2022-08-21T11:01:12;9.02;;;3.47;;
29538;SDS011;16482;51.046;4.498;2022-08-21T11:03:43;9.45;;;3.08;;
29538;SDS011;16482;51.046;4.498;2022-08-21T11:06:18;11.02;;;2.90;;
29538;SDS011;16482;51.046;4.498;2022-08-21T11:08:55;8.55;;;3.08;;
29538;SDS011;16482;51.046;4.498;2022-08-21T11:11:47;8.75;;;3.60;;
29538;SDS011;16482;51.046;4.498;2022-08-21T11:14:38;8.25;;;3.35;;
29538;SDS011;16482;51.046;4.498;2022-08-21T11:17:27;8.48;;;2.72;;
29538;SDS011;16482;51.046;4.498;2022-08-21T11:20:02;8.27;;;3.23;;
29538;SDS011;16482;51.046;4.498;2022-08-21T11:28:14;11.30;;;2.97;;
29538;SDS011;16482;51.046;4.498;2022-08-21T11:30:52;9.02;;;3.03;;
29538;SDS011;16482;51.046;4.498;2022-08-21T11:39:58;9.07;;;3.53;;
29538;SDS011;16482;51.046;4.498;2022-08-21T11:43:02;12.65;;;3.10;;
29538;SDS011;16482;51.046;4.498;2022-08-21T11:45:45;8.85;;;3.40;;
29538;SDS011;16482;51.046;4.498;2022-08-21T11:48:31;9.40;;;3.30;;
29538;SDS011;16482;51.046;4.498;2022-08-21T11:51:12;6.18;;;2.90;;
29538;SDS011;16482;51.046;4.498;2022-08-21T11:56:27;12.90;;;3.20;;
29538;SDS011;16482;51.046;4.498;2022-08-21T11:59:09;12.00;;;3.55;;
29538;SDS011;16482;51.046;4.498;2022-08-21T12:01:45;8.18;;;3.13;;
29538;SDS011;16482;51.046;4.498;2022-08-21T12:04:26;8.05;;;3.20;;
29538;SDS011;16482;51.046;4.498;2022-08-21T12:07:08;9.18;;;2.75;;
29538;SDS011;16482;51.046;4.498;2022-08-21T12:10:02;8.63;;;3.03;;
29538;SDS011;16482;51.046;4.498;2022-08-21T12:12:33;7.90;;;3.20;;
29538;SDS011;16482;51.046;4.498;2022-08-21T12:23:46;8.35;;;3.13;;
29538;SDS011;16482;51.046;4.498;2022-08-21T12:26:24;9.25;;;3.35;;
29538;SDS011;16482;51.046;4.498;2022-08-21T12:28:51;9.43;;;3.20;;
29538;SDS011;16482;51.046;4.498;2022-08-21T12:35:10;6.40;;;2.80;;
29538;SDS011;16482;51.046;4.498;2022-08-21T12:37:46;6.85;;;2.85;;
29538;SDS011;16482;51.046;4.498;2022-08-21T12:40:26;8.00;;;3.50;;
29538;SDS011;16482;51.046;4.498;2022-08-21T12:43:01;8.55;;;3.80;;
29538;SDS011;16482;51.046;4.498;2022-08-21T12:45:30;5.57;;;2.85;;
29538;SDS011;16482;51.046;4.498;2022-08-21T12:48:18;7.47;;;3.30;;
29538;SDS011;16482;51.046;4.498;2022-08-21T12:50:53;8.57;;;3.70;;
29538;SDS011;16482;51.046;4.498;2022-08-21T12:53:33;6.88;;;3.80;;
29538;SDS011;16482;51.046;4.498;2022-08-21T12:58:49;8.18;;;3.65;;
29538;SDS011;16482;51.046;4.498;2022-08-21T13:01:19;8.23;;;4.03;;
29538;SDS011;16482;51.046;4.498;2022-08-21T13:03:50;9.77;;;3.85;;
29538;SDS011;16482;51.046;4.498;2022-08-21T13:06:19;8.23;;;3.40;;
29538;SDS011;16482;51.046;4.498;2022-08-21T13:08:48;7.82;;;3.47;;
29538;SDS011;16482;51.046;4.498;2022-08-21T13:11:20;5.50;;;3.00;;
29538;SDS011;16482;51.046;4.498;2022-08-21T13:13:48;5.95;;;3.20;;
29538;SDS011;16482;51.046;4.498;2022-08-21T13:16:18;9.27;;;3.50;;
29538;SDS011;16482;51.046;4.498;2022-08-21T13:19:00;6.82;;;3.20;;
29538;SDS011;16482;51.046;4.498;2022-08-21T13:21:35;6.10;;;3.10;;
29538;SDS011;16482;51.046;4.498;2022-08-21T13:26:42;9.88;;;3.47;;
29538;SDS011;16482;51.046;4.498;2022-08-21T13:29:12;7.30;;;3.60;;
29538;SDS011;16482;51.046;4.498;2022-08-21T13:31:42;5.97;;;3.22;;
29538;SDS011;16482;51.046;4.498;2022-08-21T13:34:14;8.40;;;3.33;;
29538;SDS011;16482;51.046;4.498;2022-08-21T13:36:42;7.40;;;3.53;;
29538;SDS011;16482;51.046;4.498;2022-08-21T13:39:10;8.82;;;3.50;;
29538;SDS011;16482;51.046;4.498;2022-08-21T13:41:40;7.90;;;3.15;;
29538;SDS011;16482;51.046;4.498;2022-08-21T13:46:51;11.02;;;3.03;;
29538;SDS011;16482;51.046;4.498;2022-08-21T13:49:19;7.50;;;3.08;;
29538;SDS011;16482;51.046;4.498;2022-08-21T13:51:49;8.63;;;3.38;;
29538;SDS011;16482;51.046;4.498;2022-08-21T13:57:18;7.60;;;3.30;;
29538;SDS011;16482;51.046;4.498;2022-08-21T13:59:51;7.10;;;2.85;;
29538;SDS011;16482;51.046;4.498;2022-08-21T14:02:21;8.95;;;2.75;;
29538;SDS011;16482;51.046;4.498;2022-08-21T14:04:56;6.45;;;2.75;;
29538;SDS011;16482;51.046;4.498;2022-08-21T14:07:26;6.25;;;2.42;;
29538;SDS011;16482;51.046;4.498;2022-08-21T14:10:01;6.15;;;2.97;;
29538;SDS011;16482;51.046;4.498;2022-08-21T14:15:13;6.95;;;2.90;;
29538;SDS011;16482;51.046;4.498;2022-08-21T14:17:41;6.47;;;3.03;;
29538;SDS011;16482;51.046;4.498;2022-08-21T14:20:09;6.93;;;3.47;;
29538;SDS011;16482;51.046;4.498;2022-08-21T14:22:39;8.95;;;3.17;;
29538;SDS011;16482;51.046;4.498;2022-08-21T14:25:11;7.03;;;3.05;;
29538;SDS011;16482;51.046;4.498;2022-08-21T14:27:48;5.68;;;3.20;;
29538;SDS011;16482;51.046;4.498;2022-08-21T14:30:39;7.00;;;3.25;;
29538;SDS011;16482;51.046;4.498;2022-08-21T14:33:10;7.60;;;3.45;;
29538;SDS011;16482;51.046;4.498;2022-08-21T14:35:37;8.73;;;3.33;;
29538;SDS011;16482;51.046;4.498;2022-08-21T14:38:18;8.60;;;3.10;;
29538;SDS011;16482;51.046;4.498;2022-08-21T14:40:47;7.35;;;3.00;;
29538;SDS011;16482;51.046;4.498;2022-08-21T14:43:15;8.82;;;3.42;;
29538;SDS011;16482;51.046;4.498;2022-08-21T14:45:42;6.60;;;2.92;;
29538;SDS011;16482;51.046;4.498;2022-08-21T14:48:08;6.50;;;3.00;;
29538;SDS011;16482;51.046;4.498;2022-08-21T14:50:35;9.02;;;3.30;;
29538;SDS011;16482;51.046;4.498;2022-08-21T14:53:01;8.32;;;3.05;;
29538;SDS011;16482;51.046;4.498;2022-08-21T14:55:28;7.28;;;3.17;;
29538;SDS011;16482;51.046;4.498;2022-08-21T14:57:54;6.10;;;2.92;;
29538;SDS011;16482;51.046;4.498;2022-08-21T15:00:24;11.13;;;2.92;;
29538;SDS011;16482;51.046;4.498;2022-08-21T15:02:51;7.30;;;2.85;;
29538;SDS011;16482;51.046;4.498;2022-08-21T15:05:17;4.97;;;2.75;;
29538;SDS011;16482;51.046;4.498;2022-08-21T15:07:44;7.15;;;2.90;;
29538;SDS011;16482;51.046;4.498;2022-08-21T15:10:10;8.55;;;3.00;;
29538;SDS011;16482;51.046;4.498;2022-08-21T15:12:36;6.43;;;2.90;;
29538;SDS011;16482;51.046;4.498;2022-08-21T15:15:06;7.30;;;3.00;;
29538;SDS011;16482;51.046;4.498;2022-08-21T15:17:32;9.07;;;3.00;;
29538;SDS011;16482;51.046;4.498;2022-08-21T15:19:58;4.78;;;2.25;;
29538;SDS011;16482;51.046;4.498;2022-08-21T15:22:28;8.52;;;2.70;;
29538;SDS011;16482;51.046;4.498;2022-08-21T15:24:53;10.43;;;3.50;;
29538;SDS011;16482;51.046;4.498;2022-08-21T15:27:19;8.48;;;2.60;;
29538;SDS011;16482;51.046;4.498;2022-08-21T15:29:45;7.50;;;3.00;;
29538;SDS011;16482;51.046;4.498;2022-08-21T15:32:16;7.18;;;2.83;;
29538;SDS011;16482;51.046;4.498;2022-08-21T15:34:47;7.65;;;2.97;;
29538;SDS011;16482;51.046;4.498;2022-08-21T15:37:15;7.65;;;2.63;;
29538;SDS011;16482;51.046;4.498;2022-08-21T15:39:41;7.55;;;2.90;;
29538;SDS011;16482;51.046;4.498;2022-08-21T15:42:07;6.28;;;2.53;;
29538;SDS011;16482;51.046;4.498;2022-08-21T15:44:34;6.45;;;2.92;;
29538;SDS011;16482;51.046;4.498;2022-08-21T15:47:00;7.70;;;3.13;;
29538;SDS011;16482;51.046;4.498;2022-08-21T15:49:26;7.15;;;3.45;;
29538;SDS011;16482;51.046;4.498;2022-08-21T15:51:54;8.70;;;3.28;;
29538;SDS011;16482;51.046;4.498;2022-08-21T15:54:20;8.80;;;2.67;;
29538;SDS011;16482;51.046;4.498;2022-08-21T15:56:47;7.07;;;3.15;;
29538;SDS011;16482;51.046;4.498;2022-08-21T15:59:17;6.97;;;2.88;;
29538;SDS011;16482;51.046;4.498;2022-08-21T16:01:51;6.95;;;3.08;;
29538;SDS011;16482;51.046;4.498;2022-08-21T16:04:23;9.07;;;3.25;;
29538;SDS011;16482;51.046;4.498;2022-08-21T16:06:53;8.45;;;3.30;;
29538;SDS011;16482;51.046;4.498;2022-08-21T16:09:19;8.02;;;3.05;;
29538;SDS011;16482;51.046;4.498;2022-08-21T16:11:46;8.55;;;3.00;;
29538;SDS011;16482;51.046;4.498;2022-08-21T16:14:12;8.43;;;3.42;;
29538;SDS011;16482;51.046;4.498;2022-08-21T16:16:40;7.18;;;3.38;;
29538;SDS011;16482;51.046;4.498;2022-08-21T16:19:07;9.43;;;3.28;;
29538;SDS011;16482;51.046;4.498;2022-08-21T16:21:34;11.30;;;3.47;;